Etusivu
METAR-TAF:

METAR-TAF

Lentoasemat :

Alexandria, Louisiana, Yhdysvallat

Leveyspiiri: 31-23-42N, Pituuspiiri: 092-17-25W, korkeus merenpinnasta: 34 m

Tämänhetkinen sää

Tämä raportti tehtiin 23 minuuttia sitten, kello 22.53 UTC
Tuuli 3 kn idästä/kaakosta
Lämpötila 32°C
Kosteus 56%
Ilmanpaine 1015 hPa
Näkyvyys: 16.1 km
Hajonneita pilviä 6000 ft:n korkeudessa

METAR: KESF 222253Z AUTO 12003KT 10SM BKN060 32/22 A2996 RMK AO2 SLP142 T03220222

Aika: 18:16 (23:16 UTC)


TAF: puuttuu

Säähavainnot ja -ennusteet yli 4000 lentoasemalta (METAR- ja TAF-raportit).

Käytössä olevat sääasemat on merkitty karttaan keltaisilla ja punaisilla pisteillä.

Aseta hiiri pisteen päälle nähdäksesi sääaseman nimen.

Klikkaa sitten nähdäksesi säähavainnot ja -ennusteet.

Kartan vaihtaminen: klikkaa mustalla rastilla varustettuja vihreitä pisteitä, niin voit zoomata sisään; viivalla varustettua vihreää pistettä, niin voit zoomata ulos tai vihreitä nuolia, niin pääset viereisille kartoille.


METAR-TAF: